Time;durP1;ratioP1;P1;durP2;ratioP2;P2;SDS_P1;SDS_P2;PMS_P1;PMS_P2;Temp;Humidity;BMP_temperature;BMP_pressure;BME280_temperature;BME280_humidity;BME280_pressure;Samples;Min_cycle;Max_cycle;Signal;HPM_P1;HPM_P2
2023/08/07 00:00:28;;;;;;;11.55;3.05;;;;;;;13.98;93.25;100777.00;5012868;28;20040;-61
2023/08/07 00:02:53;;;;;;;12.98;3.90;;;;;;;13.97;93.12;100770.97;5007396;28;20030;-61
2023/08/07 00:05:19;;;;;;;14.38;3.55;;;;;;;13.95;94.13;100779.69;5020728;28;20103;-61
2023/08/07 00:07:44;;;;;;;12.95;2.72;;;;;;;13.92;94.44;100783.19;5010843;28;20858;-61
2023/08/07 00:10:10;;;;;;;11.43;3.60;;;;;;;13.92;94.88;100779.75;5002628;28;20037;-60
2023/08/07 00:12:36;;;;;;;10.15;3.20;;;;;;;13.85;95.03;100792.03;5013837;28;20057;-60
2023/08/07 00:15:05;;;;;;;12.30;2.95;;;;;;;13.80;96.01;100785.22;5013937;28;20712;-61
2023/08/07 00:17:30;;;;;;;11.40;3.08;;;;;;;13.76;96.28;100783.56;5018658;28;20457;-60
2023/08/07 00:19:56;;;;;;;11.82;3.17;;;;;;;13.73;96.50;100789.69;5016095;28;20035;-61
2023/08/07 00:22:21;;;;;;;9.60;2.75;;;;;;;13.73;96.16;100784.50;5017243;28;20121;-61
2023/08/07 00:24:46;;;;;;;15.63;2.92;;;;;;;13.75;95.45;100781.84;5017087;28;21062;-60
2023/08/07 00:27:12;;;;;;;13.68;3.65;;;;;;;13.76;95.41;100786.16;5009801;28;20038;-61
2023/08/07 00:29:38;;;;;;;11.48;3.13;;;;;;;13.80;94.29;100767.03;5013252;28;20031;-62
2023/08/07 00:32:04;;;;;;;15.05;2.97;;;;;;;13.82;94.30;100788.63;5013910;28;20100;-61
2023/08/07 00:34:29;;;;;;;12.32;3.15;;;;;;;13.83;94.05;100779.97;5018289;28;20132;-61
2023/08/07 00:36:55;;;;;;;10.57;3.10;;;;;;;13.87;92.85;100773.78;5012666;28;20030;-61
2023/08/07 00:39:21;;;;;;;8.73;2.50;;;;;;;13.89;93.20;100788.44;5017211;28;20144;-61
2023/08/07 00:41:46;;;;;;;14.38;3.72;;;;;;;13.89;93.47;100783.25;5014677;28;20088;-61
2023/08/07 00:44:12;;;;;;;17.38;2.90;;;;;;;13.90;92.42;100778.91;5012506;28;20041;-61
2023/08/07 00:46:39;;;;;;;9.40;2.97;;;;;;;13.92;92.85;100784.97;5013128;28;20040;-61
2023/08/07 00:49:05;;;;;;;12.80;3.53;;;;;;;13.93;93.22;100792.72;4998598;28;20514;-61
2023/08/07 00:51:31;;;;;;;13.50;2.97;;;;;;;13.92;93.20;100787.56;5017857;28;20041;-61
2023/08/07 00:53:57;;;;;;;11.32;2.95;;;;;;;13.90;92.79;100786.72;5018088;28;20044;-61
2023/08/07 00:56:23;;;;;;;16.38;3.78;;;;;;;13.91;93.17;100785.84;5012315;28;20122;-61
2023/08/07 00:58:50;;;;;;;13.57;3.20;;;;;;;13.90;93.01;100790.19;5017931;28;20097;-61
2023/08/07 01:01:15;;;;;;;13.82;4.03;;;;;;;13.86;94.05;100800.69;5013889;28;20683;-61
2023/08/07 01:03:41;;;;;;;11.75;3.28;;;;;;;13.81;93.95;100800.75;5015963;28;20033;-61
2023/08/07 01:06:06;;;;;;;14.35;3.90;;;;;;;13.78;94.89;100807.75;5015749;28;20061;-61
2023/08/07 01:08:32;;;;;;;12.07;3.72;;;;;;;13.77;94.66;100811.25;4996606;28;20065;-61
2023/08/07 01:11:28;;;;;;;10.93;3.20;;;;;;;13.75;95.43;100816.47;5016989;28;20025;-62
2023/08/07 01:14:09;;;;;;;17.23;3.70;;;;;;;13.74;95.82;100817.34;5018962;28;20840;-62
2023/08/07 01:16:50;;;;;;;13.60;3.60;;;;;;;13.72;95.11;100810.47;5012299;28;20053;-61
2023/08/07 01:19:34;;;;;;;9.63;2.88;;;;;;;13.75;94.62;100810.41;5013396;28;20052;-62
2023/08/07 01:22:16;;;;;;;7.95;3.20;;;;;;;13.76;95.53;100827.72;5014795;28;20096;-62
2023/08/07 01:24:44;;;;;;;13.10;3.65;;;;;;;13.75;93.84;100811.28;5016821;28;20041;-61
2023/08/07 01:27:37;;;;;;;8.85;2.85;;;;;;;13.78;94.35;100811.22;5015177;28;20038;-61
2023/08/07 01:30:12;;;;;;;8.98;2.97;;;;;;;13.82;91.85;100791.22;4979353;28;20115;-62
2023/08/07 01:32:59;;;;;;;13.23;3.33;;;;;;;13.83;92.55;100798.97;5009804;28;20077;-62
2023/08/07 01:35:33;;;;;;;18.50;3.65;;;;;;;13.85;91.84;100793.75;5014933;28;20152;-62
2023/08/07 01:38:00;;;;;;;9.43;2.72;;;;;;;13.84;92.83;100790.31;5016837;28;20120;-61
2023/08/07 01:40:27;;;;;;;10.35;2.47;;;;;;;13.86;91.67;100801.50;5008871;28;20770;-61
2023/08/07 01:42:53;;;;;;;12.88;2.75;;;;;;;13.87;91.14;100800.63;5010807;28;20095;-62
2023/08/07 01:45:25;;;;;;;9.85;3.15;;;;;;;13.89;91.18;100803.22;5014576;28;20037;-61
2023/08/07 01:47:52;;;;;;;15.05;3.78;;;;;;;13.89;91.85;100808.41;5016727;28;20057;-62
2023/08/07 01:50:21;;;;;;;16.77;3.50;;;;;;;13.87;91.54;100803.22;5018583;28;20048;-62
2023/08/07 01:52:46;;;;;;;8.75;3.35;;;;;;;13.88;92.00;100810.16;5014849;28;20030;-61
2023/08/07 01:55:13;;;;;;;16.52;4.15;;;;;;;13.89;91.51;100806.63;5014173;28;20263;-61
2023/08/07 01:57:38;;;;;;;10.32;2.92;;;;;;;13.89;90.74;100798.84;5012600;28;20029;-61
2023/08/07 02:00:04;;;;;;;11.27;3.40;;;;;;;13.92;90.94;100810.94;5023472;28;20075;-60
2023/08/07 02:02:30;;;;;;;13.80;2.95;;;;;;;13.94;90.90;100812.63;5014204;28;20571;-60
2023/08/07 02:04:55;;;;;;;15.30;3.65;;;;;;;13.94;91.10;100810.03;5013599;28;20042;-61
2023/08/07 02:07:20;;;;;;;9.45;3.08;;;;;;;13.94;90.35;100811.75;5013687;28;20038;-61
2023/08/07 02:09:46;;;;;;;10.05;3.42;;;;;;;13.97;90.26;100812.56;5018499;28;20445;-61
2023/08/07 02:12:11;;;;;;;10.93;2.67;;;;;;;13.98;90.39;100810.78;5015688;28;20037;-62
2023/08/07 02:14:36;;;;;;;15.68;3.58;;;;;;;13.96;89.74;100815.16;5018226;28;20029;-61
2023/08/07 02:17:02;;;;;;;11.95;3.30;;;;;;;13.97;90.64;100817.75;5026817;28;20038;-61
2023/08/07 02:19:27;;;;;;;11.02;3.28;;;;;;;13.96;90.79;100821.22;5014737;28;20414;-61
2023/08/07 02:21:52;;;;;;;16.20;3.15;;;;;;;13.97;90.41;100835.09;4998296;28;20075;-61
2023/08/07 02:24:19;;;;;;;14.02;3.35;;;;;;;13.96;89.76;100818.63;4997332;28;20092;-60
2023/08/07 02:26:44;;;;;;;8.68;3.20;;;;;;;13.97;89.58;100829.88;4992120;28;20029;-61
2023/08/07 02:29:10;;;;;;;14.25;3.20;;;;;;;13.99;89.75;100830.69;5015396;28;20033;-61
2023/08/07 02:31:35;;;;;;;8.90;2.92;;;;;;;14.01;88.96;100831.50;5023812;28;20687;-61
2023/08/07 02:34:00;;;;;;;11.90;2.67;;;;;;;14.00;89.00;100827.22;5018356;28;20596;-61
2023/08/07 02:36:26;;;;;;;9.48;3.17;;;;;;;14.00;89.48;100827.22;5014023;28;20441;-61
2023/08/07 02:38:51;;;;;;;9.45;2.80;;;;;;;14.01;88.65;100826.31;5018574;28;20051;-61
2023/08/07 02:41:16;;;;;;;8.50;3.00;;;;;;;14.01;88.72;100824.56;5018322;28;20095;-61
2023/08/07 02:43:42;;;;;;;13.95;3.67;;;;;;;14.03;88.26;100825.41;5015782;28;20143;-60
2023/08/07 02:46:08;;;;;;;12.13;3.13;;;;;;;14.05;88.61;100817.56;5013747;28;20164;-61
2023/08/07 02:48:33;;;;;;;11.32;3.25;;;;;;;14.04;88.68;100828.84;5017938;28;20033;-62
2023/08/07 02:50:59;;;;;;;11.95;3.40;;;;;;;14.03;88.65;100822.81;5019085;28;20041;-60
2023/08/07 02:53:24;;;;;;;10.43;2.80;;;;;;;14.02;89.57;100836.69;5019718;28;20041;-61
2023/08/07 02:55:49;;;;;;;11.18;3.30;;;;;;;13.98;90.14;100834.16;5012739;28;20068;-61
2023/08/07 02:58:15;;;;;;;13.13;3.35;;;;;;;13.94;89.84;100840.34;5013850;28;20037;-62
2023/08/07 03:00:40;;;;;;;14.50;3.33;;;;;;;13.92;90.32;100850.75;4996897;28;20045;-60
2023/08/07 03:03:05;;;;;;;10.15;3.38;;;;;;;13.86;91.48;100850.06;4996851;28;20038;-60
2023/08/07 03:05:31;;;;;;;13.63;3.30;;;;;;;13.79;92.41;100843.25;5013404;28;20038;-60
2023/08/07 03:07:56;;;;;;;10.85;3.72;;;;;;;13.72;92.78;100852.03;5010995;28;20041;-61
2023/08/07 03:10:21;;;;;;;9.73;3.22;;;;;;;13.68;92.31;100848.69;5011842;28;20052;-61
2023/08/07 03:12:47;;;;;;;10.07;3.53;;;;;;;13.66;92.56;100850.44;5019199;28;20037;-61
2023/08/07 03:15:12;;;;;;;9.30;3.38;;;;;;;13.62;93.29;100854.00;5015447;28;20434;-61
2023/08/07 03:17:38;;;;;;;7.57;3.53;;;;;;;13.54;95.16;100848.06;5012824;28;20029;-62
2023/08/07 03:20:03;;;;;;;13.48;3.17;;;;;;;13.51;94.23;100845.53;5016154;28;20076;-62
2023/08/07 03:22:29;;;;;;;11.77;3.65;;;;;;;13.46;94.38;100845.63;5014220;28;20068;-62
2023/08/07 03:24:54;;;;;;;8.13;3.08;;;;;;;13.43;95.77;100855.22;5012006;28;20052;-62
2023/08/07 03:27:20;;;;;;;10.18;3.35;;;;;;;13.41;95.50;100844.88;5010193;28;20156;-62
2023/08/07 03:29:45;;;;;;;12.43;3.45;;;;;;;13.38;96.32;100850.13;5016631;28;21038;-61
2023/08/07 03:32:11;;;;;;;16.92;3.10;;;;;;;13.37;96.45;100848.41;5006468;28;20433;-62
2023/08/07 03:34:36;;;;;;;9.15;3.05;;;;;;;13.35;96.16;100850.16;5009434;28;20128;-61
2023/08/07 03:37:02;;;;;;;13.80;3.67;;;;;;;13.31;97.97;100851.09;5015473;28;20519;-62
2023/08/07 03:39:30;;;;;;;12.27;3.25;;;;;;;13.28;98.14;100845.97;5012971;28;20080;-64
2023/08/07 03:41:55;;;;;;;10.45;3.17;;;;;;;13.24;98.78;100856.41;5014968;28;20029;-63
2023/08/07 03:44:21;;;;;;;11.68;3.65;;;;;;;13.25;98.32;100851.22;5011629;28;20069;-63
2023/08/07 03:46:46;;;;;;;12.23;4.10;;;;;;;13.19;99.02;100856.50;5006984;28;20135;-62
2023/08/07 03:49:11;;;;;;;12.25;4.20;;;;;;;13.16;100.00;100860.88;4993299;28;20052;-63
2023/08/07 03:51:37;;;;;;;12.27;4.05;;;;;;;13.12;100.00;100854.88;5024318;28;20065;-62
2023/08/07 03:54:02;;;;;;;12.65;4.15;;;;;;;13.09;100.00;100869.69;5018466;28;20457;-63
2023/08/07 03:56:27;;;;;;;12.68;3.40;;;;;;;13.07;100.00;100864.50;5015139;28;20034;-63
2023/08/07 03:58:53;;;;;;;11.18;3.20;;;;;;;13.05;100.00;100861.09;5016305;28;20033;-62
2023/08/07 04:01:18;;;;;;;11.00;3.20;;;;;;;13.05;100.00;100857.63;5013786;28;20041;-63
2023/08/07 04:03:46;;;;;;;9.40;2.88;;;;;;;13.03;100.00;100872.38;5014561;28;20070;-62
2023/08/07 04:06:15;;;;;;;12.95;3.80;;;;;;;13.02;100.00;100870.66;5017025;28;20091;-62
2023/08/07 04:08:41;;;;;;;10.88;3.60;;;;;;;12.96;100.00;100864.66;5020184;28;20121;-62
2023/08/07 04:11:07;;;;;;;9.35;3.95;;;;;;;12.97;100.00;100868.09;5020548;28;20045;-62
2023/08/07 04:13:32;;;;;;;13.35;3.33;;;;;;;12.94;100.00;100876.78;5014116;28;20049;-62
2023/08/07 04:15:58;;;;;;;9.80;3.20;;;;;;;12.92;100.00;100868.19;5019791;28;20620;-62
2023/08/07 04:18:24;;;;;;;12.25;3.40;;;;;;;12.87;100.00;100872.59;5012629;28;20065;-63
2023/08/07 04:20:54;;;;;;;10.25;3.38;;;;;;;12.86;100.00;100875.19;5017826;28;20542;-63
2023/08/07 04:23:20;;;;;;;9.40;3.58;;;;;;;12.84;100.00;100879.56;5017609;28;20119;-62
2023/08/07 04:25:47;;;;;;;11.40;3.75;;;;;;;12.80;100.00;100881.34;5001208;28;20041;-63
2023/08/07 04:28:12;;;;;;;11.18;3.60;;;;;;;12.80;100.00;100889.13;5011354;28;20558;-63
2023/08/07 04:30:37;;;;;;;13.32;3.53;;;;;;;12.78;100.00;100882.25;5004411;28;20128;-64
2023/08/07 04:33:03;;;;;;;6.88;3.10;;;;;;;12.78;100.00;100884.84;5023834;28;20071;-63
2023/08/07 04:35:28;;;;;;;11.48;3.58;;;;;;;12.77;100.00;100883.97;5019050;28;20111;-63
2023/08/07 04:37:53;;;;;;;10.98;3.85;;;;;;;12.76;100.00;100886.63;5019550;28;20049;-63
2023/08/07 04:40:19;;;;;;;12.00;3.97;;;;;;;12.76;100.00;100886.63;5021442;28;20029;-63
2023/08/07 04:42:44;;;;;;;15.82;3.92;;;;;;;12.74;100.00;100894.41;5016402;28;20399;-63
2023/08/07 04:45:10;;;;;;;10.98;4.07;;;;;;;12.74;100.00;100897.00;5015376;28;20399;-64
2023/08/07 04:47:35;;;;;;;8.70;3.60;;;;;;;12.74;100.00;100901.31;5015132;28;20028;-63
2023/08/07 04:50:01;;;;;;;14.13;4.00;;;;;;;12.71;100.00;100904.81;4999084;28;20033;-63
2023/08/07 04:52:26;;;;;;;13.35;4.45;;;;;;;12.74;100.00;100893.53;5014155;28;20060;-64
2023/08/07 04:54:51;;;;;;;11.63;4.00;;;;;;;12.73;100.00;100899.63;5010751;28;20608;-63
2023/08/07 04:57:17;;;;;;;18.27;4.88;;;;;;;12.76;100.00;100903.00;5020856;28;20050;-63
2023/08/07 04:59:42;;;;;;;13.20;4.25;;;;;;;12.77;100.00;100894.34;5013795;28;20108;-63
2023/08/07 05:02:07;;;;;;;15.32;4.57;;;;;;;12.76;100.00;100903.00;5017133;28;20143;-64
2023/08/07 05:04:33;;;;;;;13.80;4.03;;;;;;;12.77;100.00;100898.69;5018826;28;20095;-63
2023/08/07 05:06:58;;;;;;;12.52;3.63;;;;;;;12.83;100.00;100893.41;5018363;28;20033;-63
2023/08/07 05:09:24;;;;;;;11.50;3.22;;;;;;;12.88;100.00;100892.44;5018622;28;20044;-63
2023/08/07 05:11:49;;;;;;;16.48;3.85;;;;;;;12.94;100.00;100894.94;5015370;28;20445;-62
2023/08/07 05:14:14;;;;;;;13.70;4.32;;;;;;;12.98;100.00;100893.16;5020459;28;20082;-63
2023/08/07 05:16:39;;;;;;;10.13;3.15;;;;;;;13.03;100.00;100888.78;5017681;28;20132;-62
2023/08/07 05:19:05;;;;;;;15.60;4.07;;;;;;;13.08;100.00;100891.31;5019522;28;20037;-62
2023/08/07 05:21:30;;;;;;;12.57;3.33;;;;;;;13.14;100.00;100896.41;5015679;28;20132;-62
2023/08/07 05:23:55;;;;;;;13.75;3.38;;;;;;;13.17;100.00;100898.94;5014879;28;20036;-62
2023/08/07 05:26:21;;;;;;;18.02;4.18;;;;;;;13.21;100.00;100900.59;5016215;28;21546;-62
2023/08/07 05:28:47;;;;;;;8.82;3.42;;;;;;;13.27;100.00;100888.38;5016676;28;20068;-62
2023/08/07 05:31:12;;;;;;;15.30;3.95;;;;;;;13.33;100.00;100888.25;5013454;28;20132;-62
2023/08/07 05:33:37;;;;;;;10.18;3.40;;;;;;;13.39;98.92;100897.69;5010708;28;20038;-61
2023/08/07 05:36:05;;;;;;;12.43;3.53;;;;;;;13.46;96.97;100881.97;5015749;28;20033;-63
2023/08/07 05:38:30;;;;;;;8.60;2.97;;;;;;;13.59;95.69;100880.03;5014874;28;20037;-62
2023/08/07 05:40:55;;;;;;;9.18;3.08;;;;;;;13.68;94.45;100882.44;5016371;28;20069;-61
2023/08/07 05:43:21;;;;;;;12.75;3.38;;;;;;;13.76;93.14;100890.06;5015929;28;20112;-61
2023/08/07 05:45:46;;;;;;;8.57;3.00;;;;;;;13.79;93.58;100892.63;5011808;28;20042;-60
2023/08/07 05:48:12;;;;;;;8.15;2.90;;;;;;;13.80;92.79;100899.53;5012686;28;20095;-60
2023/08/07 05:50:37;;;;;;;10.60;3.42;;;;;;;13.86;93.59;100899.41;5018200;28;20033;-60
2023/08/07 05:53:02;;;;;;;9.27;3.28;;;;;;;13.86;91.56;100889.84;5002573;28;20057;-60
2023/08/07 05:55:28;;;;;;;11.57;3.35;;;;;;;13.93;92.03;100898.38;5012434;28;20065;-60
2023/08/07 05:57:53;;;;;;;15.75;3.13;;;;;;;13.92;91.80;100900.13;5010229;28;20073;-60
2023/08/07 06:00:19;;;;;;;11.77;2.97;;;;;;;13.94;91.75;100900.97;5010215;28;20041;-60
2023/08/07 06:02:44;;;;;;;10.20;2.67;;;;;;;13.93;89.81;100909.66;5009699;28;20034;-62
2023/08/07 06:05:12;;;;;;;9.38;2.72;;;;;;;13.94;90.16;100911.38;5013047;28;20116;-59
2023/08/07 06:07:38;;;;;;;9.48;3.05;;;;;;;13.95;90.75;100912.22;5013412;28;20037;-60
2023/08/07 06:10:03;;;;;;;6.60;3.20;;;;;;;13.97;88.96;100907.84;5011178;28;20537;-59
2023/08/07 06:12:29;;;;;;;14.13;2.97;;;;;;;14.00;88.46;100902.59;5010276;28;20133;-59
2023/08/07 06:14:54;;;;;;;9.82;2.63;;;;;;;13.98;88.88;100904.34;5011240;28;20486;-59
2023/08/07 06:17:19;;;;;;;7.65;3.08;;;;;;;13.99;88.37;100906.94;5015229;28;20128;-59
2023/08/07 06:19:45;;;;;;;9.88;2.92;;;;;;;14.02;87.60;100913.81;5016382;28;20037;-60
2023/08/07 06:22:10;;;;;;;13.63;2.95;;;;;;;14.06;86.84;100902.47;5014284;28;20157;-60
2023/08/07 06:24:35;;;;;;;9.85;2.80;;;;;;;14.09;86.59;100923.19;5013867;28;20041;-60
2023/08/07 06:27:02;;;;;;;10.18;3.00;;;;;;;14.05;86.90;100926.75;5012549;28;20104;-60
2023/08/07 06:29:27;;;;;;;9.85;3.15;;;;;;;13.99;88.79;100932.06;5012192;28;20096;-64
2023/08/07 06:31:53;;;;;;;7.20;2.83;;;;;;;13.92;88.49;100928.72;5011805;28;20029;-64
2023/08/07 06:34:18;;;;;;;9.20;2.88;;;;;;;13.84;89.46;100929.75;5011440;28;20891;-65
2023/08/07 06:36:44;;;;;;;8.77;2.60;;;;;;;13.78;90.46;100929.88;5010928;28;20042;-65
2023/08/07 06:39:09;;;;;;;8.63;2.60;;;;;;;13.68;92.27;100942.19;5004209;28;20473;-64
2023/08/07 06:41:35;;;;;;;9.70;2.78;;;;;;;13.59;94.52;100949.28;5014161;28;20036;-63
2023/08/07 06:44:01;;;;;;;9.18;2.92;;;;;;;13.47;94.60;100952.94;5015865;28;20037;-65
2023/08/07 06:46:27;;;;;;;13.15;3.55;;;;;;;13.40;95.95;100969.50;5012938;28;20046;-65
2023/08/07 06:48:53;;;;;;;9.02;3.45;;;;;;;13.32;97.55;100961.84;5016469;28;20077;-66
2023/08/07 06:51:18;;;;;;;9.15;2.78;;;;;;;13.24;98.27;100961.09;5019745;28;20137;-64
2023/08/07 06:53:44;;;;;;;15.80;3.63;;;;;;;13.18;99.19;100960.38;5013555;28;20076;-63
2023/08/07 06:56:09;;;;;;;11.48;2.90;;;;;;;13.14;99.59;100950.91;5010954;28;20057;-65
2023/08/07 06:58:34;;;;;;;7.15;3.15;;;;;;;13.13;100.00;100954.38;5005499;28;20357;-65
2023/08/07 07:01:00;;;;;;;9.07;3.40;;;;;;;13.09;100.00;100961.34;5021304;28;20810;-66
2023/08/07 07:03:25;;;;;;;15.65;2.95;;;;;;;13.04;100.00;100959.69;5010222;28;20410;-64
2023/08/07 07:05:50;;;;;;;14.18;3.30;;;;;;;13.03;100.00;100955.41;5012514;28;20532;-65
2023/08/07 07:08:16;;;;;;;9.73;3.13;;;;;;;12.99;100.00;100958.06;5020417;28;20513;-65
2023/08/07 07:10:41;;;;;;;8.75;3.20;;;;;;;12.98;100.00;100966.69;5012602;28;20054;-66
2023/08/07 07:13:09;;;;;;;10.48;2.95;;;;;;;12.96;100.00;100976.22;5022364;28;20045;-66
2023/08/07 07:15:35;;;;;;;12.50;3.35;;;;;;;12.95;100.00;100973.66;4999434;28;20119;-66
2023/08/07 07:18:00;;;;;;;12.05;3.10;;;;;;;12.97;100.00;100974.47;5021949;28;20842;-66
2023/08/07 07:20:26;;;;;;;14.88;3.58;;;;;;;13.02;100.00;100977.03;4998924;28;20030;-66
2023/08/07 07:22:52;;;;;;;9.43;3.83;;;;;;;12.98;100.00;100984.84;5012343;28;20045;-67
2023/08/07 07:25:17;;;;;;;11.40;2.92;;;;;;;12.96;100.00;100977.97;5016865;28;20045;-63
2023/08/07 07:27:43;;;;;;;11.80;3.45;;;;;;;12.95;100.00;100991.81;5021994;28;20850;-66
2023/08/07 07:30:08;;;;;;;12.98;3.75;;;;;;;12.97;100.00;100996.09;5021725;28;20086;-67
2023/08/07 07:32:34;;;;;;;11.30;3.47;;;;;;;13.04;100.00;101003.81;5016682;28;20479;-67
2023/08/07 07:34:59;;;;;;;10.00;3.15;;;;;;;13.05;100.00;101002.94;5016975;28;20124;-67
2023/08/07 07:37:25;;;;;;;10.70;3.72;;;;;;;13.17;100.00;100987.19;5018445;28;20040;-67
2023/08/07 07:39:50;;;;;;;7.35;3.30;;;;;;;13.22;100.00;101001.81;5019636;28;20032;-69
2023/08/07 07:42:15;;;;;;;8.95;3.33;;;;;;;13.20;100.00;101000.13;5019593;28;20703;-67
2023/08/07 07:44:41;;;;;;;5.32;2.75;;;;;;;13.24;100.00;100992.25;4996806;28;20017;-67
2023/08/07 07:47:08;;;;;;;11.35;3.30;;;;;;;13.28;100.00;100999.13;5018429;28;20037;-67
2023/08/07 07:49:33;;;;;;;9.50;3.08;;;;;;;13.33;100.00;100999.03;5011705;28;20038;-66
2023/08/07 07:51:58;;;;;;;12.73;3.55;;;;;;;13.38;100.00;101005.91;5017256;28;20052;-67
2023/08/07 07:54:24;;;;;;;12.82;3.78;;;;;;;13.48;100.00;101010.03;5016902;28;20041;-67
2023/08/07 07:56:49;;;;;;;10.52;3.28;;;;;;;13.61;100.00;101015.91;5023701;28;20021;-66
2023/08/07 07:59:14;;;;;;;10.18;3.90;;;;;;;13.65;100.00;101014.13;5017810;28;20041;-68
2023/08/07 08:01:40;;;;;;;11.15;3.10;;;;;;;13.72;100.00;101020.91;5017739;28;20041;-67
2023/08/07 08:04:06;;;;;;;6.97;3.10;;;;;;;13.77;99.53;101019.09;5018669;28;20525;-66
2023/08/07 08:06:31;;;;;;;8.95;3.38;;;;;;;13.80;98.78;101032.88;5012280;28;20136;-66
2023/08/07 08:08:57;;;;;;;10.50;3.17;;;;;;;13.87;98.96;101025.84;5015331;28;20064;-67
2023/08/07 08:11:22;;;;;;;12.27;3.20;;;;;;;13.96;97.85;101010.06;5014372;28;20321;-68
2023/08/07 08:13:47;;;;;;;9.63;2.60;;;;;;;14.05;96.09;101025.50;5021999;28;20124;-66
2023/08/07 08:16:13;;;;;;;10.75;3.88;;;;;;;14.06;95.42;101024.63;5008380;28;20041;-68
2023/08/07 08:18:38;;;;;;;9.20;2.88;;;;;;;14.09;96.38;101028.03;5012073;28;20033;-67
2023/08/07 08:21:03;;;;;;;13.70;3.33;;;;;;;14.07;95.34;101037.59;5016638;28;20132;-67
2023/08/07 08:23:29;;;;;;;9.57;3.53;;;;;;;14.16;94.86;101033.13;5013775;28;20064;-66
2023/08/07 08:25:54;;;;;;;8.25;3.17;;;;;;;14.25;95.49;101040.72;5018293;28;20029;-66
2023/08/07 08:28:19;;;;;;;8.80;3.03;;;;;;;14.29;93.99;101047.59;5014538;28;20045;-66
2023/08/07 08:30:45;;;;;;;8.25;3.15;;;;;;;14.38;93.29;101044.84;5017777;28;20692;-66
2023/08/07 08:33:12;;;;;;;13.07;3.00;;;;;;;14.51;93.16;101046.34;5016970;28;20111;-66
2023/08/07 08:35:38;;;;;;;10.35;3.38;;;;;;;14.58;90.92;101053.97;5017457;28;20064;-67
2023/08/07 08:38:04;;;;;;;11.57;3.60;;;;;;;14.74;91.22;101040.66;5016477;28;20494;-66
2023/08/07 08:40:30;;;;;;;8.75;2.92;;;;;;;14.81;89.60;101050.06;5010899;28;20038;-66
2023/08/07 08:42:59;;;;;;;9.43;3.15;;;;;;;14.90;89.06;101044.66;5000227;28;20940;-66
2023/08/07 08:45:26;;;;;;;10.02;3.20;;;;;;;15.03;88.84;101031.31;5015739;28;20111;-66
2023/08/07 08:47:54;;;;;;;11.77;3.03;;;;;;;15.10;88.14;101043.31;5020043;28;20067;-67
2023/08/07 08:50:20;;;;;;;10.10;3.25;;;;;;;15.15;87.66;101058.81;5015197;28;20021;-65
2023/08/07 08:52:46;;;;;;;10.82;3.13;;;;;;;15.26;86.99;101062.03;4999456;28;20037;-66
2023/08/07 08:55:13;;;;;;;9.90;2.95;;;;;;;15.35;87.92;101061.81;5017904;28;20080;-66
2023/08/07 08:57:39;;;;;;;12.82;3.88;;;;;;;15.43;88.88;101070.34;5015781;28;20052;-67
2023/08/07 09:00:15;;;;;;;9.93;3.33;;;;;;;15.38;87.72;101053.09;5008191;28;20049;-69
2023/08/07 09:02:43;;;;;;;11.35;3.20;;;;;;;15.44;88.28;101060.75;5022675;28;20037;-68
2023/08/07 09:05:09;;;;;;;11.20;3.05;;;;;;;15.36;88.04;101063.56;5019826;28;20034;-67
2023/08/07 09:07:35;;;;;;;6.97;2.53;;;;;;;15.31;87.87;101069.75;5014519;28;20037;-68
2023/08/07 09:10:02;;;;;;;11.77;2.80;;;;;;;15.29;88.34;101074.13;5013171;28;20052;-67
2023/08/07 09:12:31;;;;;;;12.65;3.22;;;;;;;15.45;89.35;101084.19;5012135;28;20042;-67
2023/08/07 09:14:58;;;;;;;8.15;2.35;;;;;;;15.42;85.96;101071.22;5022741;28;20059;-67
2023/08/07 09:17:26;;;;;;;6.50;2.30;;;;;;;15.55;85.28;101058.78;5017338;28;20144;-67
2023/08/07 09:19:53;;;;;;;6.85;3.05;;;;;;;15.81;85.48;101076.41;5015447;28;20099;-68
2023/08/07 09:22:19;;;;;;;8.30;2.67;;;;;;;15.97;83.57;101072.53;5013734;28;20048;-67
2023/08/07 09:24:44;;;;;;;8.23;3.25;;;;;;;16.05;81.03;101060.16;5016645;28;20041;-67
2023/08/07 09:27:09;;;;;;;9.68;2.53;;;;;;;16.22;80.73;101056.19;5016277;28;20052;-67
2023/08/07 09:29:35;;;;;;;9.18;2.78;;;;;;;16.44;81.54;101072.13;5010945;28;20042;-67
2023/08/07 09:32:27;;;;;;;9.23;2.58;;;;;;;16.42;79.23;101073.03;5021379;28;20033;-68
2023/08/07 09:34:53;;;;;;;7.70;2.70;;;;;;;16.44;79.35;101063.44;5014085;28;20044;-68
2023/08/07 09:37:19;;;;;;;10.93;2.78;;;;;;;16.36;78.43;101081.91;5015381;28;20111;-68
2023/08/07 09:39:44;;;;;;;11.63;2.90;;;;;;;16.16;78.24;101087.66;5006182;28;20146;-66
2023/08/07 09:42:15;;;;;;;8.02;2.53;;;;;;;16.01;78.60;101093.25;4992889;28;20170;-66
2023/08/07 09:44:40;;;;;;;8.25;2.70;;;;;;;15.91;79.09;101110.00;5015907;28;20029;-67
2023/08/07 09:47:17;;;;;;;10.65;2.85;;;;;;;16.17;79.45;101106.78;5013524;28;20047;-65
2023/08/07 09:49:44;;;;;;;5.55;2.28;;;;;;;16.33;79.31;101108.06;5006912;28;20450;-65
2023/08/07 09:52:13;;;;;;;9.57;2.67;;;;;;;16.45;79.35;101106.88;5009307;28;20068;-66
2023/08/07 09:54:38;;;;;;;8.05;2.42;;;;;;;16.51;79.22;101109.31;5014090;28;20082;-67
2023/08/07 09:57:05;;;;;;;7.45;2.78;;;;;;;16.55;79.51;101118.78;5013003;28;20045;-67
2023/08/07 09:59:32;;;;;;;10.02;2.70;;;;;;;16.61;80.20;101129.06;5006924;28;20049;-66
2023/08/07 10:01:59;;;;;;;8.85;2.70;;;;;;;16.52;79.60;101124.09;5006869;28;20038;-65
2023/08/07 10:04:26;;;;;;;8.20;2.88;;;;;;;16.52;79.49;101126.69;5007921;28;20045;-66
2023/08/07 10:06:52;;;;;;;5.82;2.35;;;;;;;16.49;80.58;101140.69;5003057;28;20038;-66
2023/08/07 10:09:18;;;;;;;8.35;2.80;;;;;;;16.51;79.77;101125.84;5015531;28;20053;-66
2023/08/07 10:11:43;;;;;;;8.38;2.65;;;;;;;16.74;79.95;101133.06;5013127;28;20107;-66
2023/08/07 10:14:09;;;;;;;6.45;2.55;;;;;;;16.89;78.62;101132.63;5013153;28;20494;-65
2023/08/07 10:16:39;;;;;;;12.13;3.03;;;;;;;16.90;77.28;101128.28;5018662;28;20037;-66
2023/08/07 10:19:06;;;;;;;10.55;2.80;;;;;;;17.18;77.57;101135.28;5014275;28;20041;-66
2023/08/07 10:21:35;;;;;;;8.55;2.90;;;;;;;17.07;76.36;101123.41;5011406;28;20495;-65
2023/08/07 10:24:03;;;;;;;5.95;2.25;;;;;;;17.02;76.50;101133.16;5021107;28;20037;-64
2023/08/07 10:26:29;;;;;;;6.85;2.50;;;;;;;17.18;76.03;101121.38;5019051;28;20032;-65
2023/08/07 10:28:57;;;;;;;7.78;2.47;;;;;;;17.21;75.50;101113.44;5011838;28;20041;-65
2023/08/07 10:31:24;;;;;;;6.22;2.95;;;;;;;17.51;74.16;101099.44;5018476;28;20126;-65
2023/08/07 10:33:49;;;;;;;6.53;2.53;;;;;;;17.67;72.63;101084.09;5010914;28;20029;-65
2023/08/07 10:36:16;;;;;;;6.25;2.40;;;;;;;17.70;71.56;101073.53;5015443;28;20030;-65
2023/08/07 10:38:42;;;;;;;7.53;2.55;;;;;;;17.85;70.73;101076.53;5012155;28;20309;-64
2023/08/07 10:41:09;;;;;;;5.47;2.25;;;;;;;17.94;69.96;101068.41;5019753;28;20033;-64
2023/08/07 10:43:39;;;;;;;12.60;2.30;;;;;;;18.11;70.32;101090.50;5022802;28;20034;-65
2023/08/07 10:46:08;;;;;;;8.50;2.22;;;;;;;18.00;67.54;101033.31;5011714;28;20076;-64
2023/08/07 10:48:41;;;;;;;7.30;2.00;;;;;;;18.03;67.65;101041.06;5014145;28;20665;-64
2023/08/07 10:51:07;;;;;;;6.65;2.63;;;;;;;18.06;68.07;101066.25;5018612;28;20049;-64
2023/08/07 10:53:37;;;;;;;10.25;2.92;;;;;;;18.12;67.79;101061.69;5018175;28;20146;-61
2023/08/07 10:56:08;;;;;;;5.15;2.13;;;;;;;18.09;67.61;101061.78;5021847;28;20048;-62
2023/08/07 10:58:38;;;;;;;5.15;2.28;;;;;;;18.26;66.83;101041.13;5011453;28;20135;-62
2023/08/07 11:01:34;;;;;;;7.43;2.65;;;;;;;18.37;65.96;101030.28;5016072;28;20729;-60
2023/08/07 11:04:06;;;;;;;10.05;2.50;;;;;;;18.63;65.14;101016.22;5020707;28;20079;-61
2023/08/07 11:06:33;;;;;;;6.05;2.00;;;;;;;18.67;65.50;101044.00;5006009;28;20044;-61
2023/08/07 11:09:00;;;;;;;8.48;2.08;;;;;;;18.63;65.02;101031.94;5010581;28;21002;-62
2023/08/07 11:11:27;;;;;;;7.15;2.42;;;;;;;18.51;63.04;101014.91;5014453;28;20056;-61
2023/08/07 11:13:52;;;;;;;8.50;1.90;;;;;;;18.49;65.04;101045.53;5018574;28;20049;-62
2023/08/07 11:16:20;;;;;;;10.82;2.60;;;;;;;18.48;64.84;101041.19;5009962;28;20041;-61